sensor_id;sensor_type;location;lat;lon;timestamp;P1;P2;P0
75960;PMS7003;64644;48.914;2.254;2023-12-14T00:00:44;1.50;0.50;0.00
75960;PMS7003;64644;48.914;2.254;2023-12-14T00:03:09;1.25;0.50;0.50
75960;PMS7003;64644;48.914;2.254;2023-12-14T00:05:34;1.00;1.00;0.25
75960;PMS7003;64644;48.914;2.254;2023-12-14T00:08:00;3.25;1.50;1.00
75960;PMS7003;64644;48.914;2.254;2023-12-14T00:10:26;2.00;2.00;1.00
75960;PMS7003;64644;48.914;2.254;2023-12-14T00:12:51;0.75;0.75;0.00
75960;PMS7003;64644;48.914;2.254;2023-12-14T00:15:18;1.00;1.00;0.00
75960;PMS7003;64644;48.914;2.254;2023-12-14T00:17:43;0.00;0.00;0.00
75960;PMS7003;64644;48.914;2.254;2023-12-14T00:20:09;1.00;1.00;0.00
75960;PMS7003;64644;48.914;2.254;2023-12-14T00:22:34;2.75;1.25;0.75
75960;PMS7003;64644;48.914;2.254;2023-12-14T00:24:59;2.00;1.00;0.00
75960;PMS7003;64644;48.914;2.254;2023-12-14T00:27:25;0.00;0.00;0.00
75960;PMS7003;64644;48.914;2.254;2023-12-14T00:29:50;1.00;1.00;1.00
75960;PMS7003;64644;48.914;2.254;2023-12-14T00:32:15;0.25;0.25;0.00
75960;PMS7003;64644;48.914;2.254;2023-12-14T00:34:41;2.00;0.75;0.00
75960;PMS7003;64644;48.914;2.254;2023-12-14T00:37:06;0.00;0.00;0.00
75960;PMS7003;64644;48.914;2.254;2023-12-14T00:39:32;1.25;1.00;1.00
75960;PMS7003;64644;48.914;2.254;2023-12-14T00:41:57;1.50;1.50;0.00
75960;PMS7003;64644;48.914;2.254;2023-12-14T00:44:22;1.00;1.00;0.00
75960;PMS7003;64644;48.914;2.254;2023-12-14T00:46:48;1.00;1.00;0.00
75960;PMS7003;64644;48.914;2.254;2023-12-14T00:49:13;0.50;0.00;0.00
75960;PMS7003;64644;48.914;2.254;2023-12-14T00:51:38;0.00;0.00;0.00
75960;PMS7003;64644;48.914;2.254;2023-12-14T00:54:05;1.25;0.25;0.00
75960;PMS7003;64644;48.914;2.254;2023-12-14T00:56:30;0.75;0.75;0.75
75960;PMS7003;64644;48.914;2.254;2023-12-14T00:58:55;0.00;0.00;0.00
75960;PMS7003;64644;48.914;2.254;2023-12-14T01:01:21;0.00;0.00;0.00
75960;PMS7003;64644;48.914;2.254;2023-12-14T01:03:46;0.00;0.00;0.00
75960;PMS7003;64644;48.914;2.254;2023-12-14T01:06:11;0.00;0.00;0.00
75960;PMS7003;64644;48.914;2.254;2023-12-14T01:08:37;0.00;0.00;0.00
75960;PMS7003;64644;48.914;2.254;2023-12-14T01:11:02;0.00;0.00;0.00
75960;PMS7003;64644;48.914;2.254;2023-12-14T01:13:28;0.25;0.25;0.00
75960;PMS7003;64644;48.914;2.254;2023-12-14T01:15:53;0.00;0.00;0.00
75960;PMS7003;64644;48.914;2.254;2023-12-14T01:18:19;1.00;1.00;0.00
75960;PMS7003;64644;48.914;2.254;2023-12-14T01:20:44;1.00;1.00;0.00
75960;PMS7003;64644;48.914;2.254;2023-12-14T01:23:09;0.00;0.00;0.00
75960;PMS7003;64644;48.914;2.254;2023-12-14T01:25:35;0.00;0.00;0.00
75960;PMS7003;64644;48.914;2.254;2023-12-14T01:28:01;1.00;0.00;0.00
75960;PMS7003;64644;48.914;2.254;2023-12-14T01:30:26;0.00;0.00;0.00
75960;PMS7003;64644;48.914;2.254;2023-12-14T01:32:52;0.00;0.00;0.00
75960;PMS7003;64644;48.914;2.254;2023-12-14T01:35:17;1.00;0.00;0.00
75960;PMS7003;64644;48.914;2.254;2023-12-14T01:37:42;1.00;1.00;0.00
75960;PMS7003;64644;48.914;2.254;2023-12-14T01:40:08;1.25;0.00;0.00
75960;PMS7003;64644;48.914;2.254;2023-12-14T01:42:33;3.00;0.00;0.00
75960;PMS7003;64644;48.914;2.254;2023-12-14T01:44:59;0.00;0.00;0.00
75960;PMS7003;64644;48.914;2.254;2023-12-14T01:47:24;0.00;0.00;0.00
75960;PMS7003;64644;48.914;2.254;2023-12-14T01:49:49;0.00;0.00;0.00
75960;PMS7003;64644;48.914;2.254;2023-12-14T01:52:15;0.00;0.00;0.00
75960;PMS7003;64644;48.914;2.254;2023-12-14T01:54:40;0.75;0.00;0.00
75960;PMS7003;64644;48.914;2.254;2023-12-14T01:57:05;0.00;0.00;0.00
75960;PMS7003;64644;48.914;2.254;2023-12-14T01:59:31;0.00;0.00;0.00
75960;PMS7003;64644;48.914;2.254;2023-12-14T02:01:56;0.00;0.00;0.00
75960;PMS7003;64644;48.914;2.254;2023-12-14T02:04:23;0.00;0.00;0.00
75960;PMS7003;64644;48.914;2.254;2023-12-14T02:06:50;0.00;0.00;0.00
75960;PMS7003;64644;48.914;2.254;2023-12-14T02:09:15;1.50;1.00;0.00
75960;PMS7003;64644;48.914;2.254;2023-12-14T02:11:41;1.50;0.00;0.00
75960;PMS7003;64644;48.914;2.254;2023-12-14T02:14:06;0.00;0.00;0.00
75960;PMS7003;64644;48.914;2.254;2023-12-14T02:16:34;0.00;0.00;0.00
75960;PMS7003;64644;48.914;2.254;2023-12-14T02:19:00;0.00;0.00;0.00
75960;PMS7003;64644;48.914;2.254;2023-12-14T02:21:25;0.00;0.00;0.00
75960;PMS7003;64644;48.914;2.254;2023-12-14T02:23:50;0.00;0.00;0.00
75960;PMS7003;64644;48.914;2.254;2023-12-14T02:26:16;1.00;0.00;0.00
75960;PMS7003;64644;48.914;2.254;2023-12-14T02:28:41;0.00;0.00;0.00
75960;PMS7003;64644;48.914;2.254;2023-12-14T02:31:07;0.00;0.00;0.00
75960;PMS7003;64644;48.914;2.254;2023-12-14T02:33:32;0.00;0.00;0.00
75960;PMS7003;64644;48.914;2.254;2023-12-14T02:35:57;0.00;0.00;0.00
75960;PMS7003;64644;48.914;2.254;2023-12-14T02:38:23;0.00;0.00;0.00
75960;PMS7003;64644;48.914;2.254;2023-12-14T02:40:48;0.50;0.50;0.00
75960;PMS7003;64644;48.914;2.254;2023-12-14T02:43:16;1.00;1.00;0.00
75960;PMS7003;64644;48.914;2.254;2023-12-14T02:45:41;1.00;0.00;0.00
75960;PMS7003;64644;48.914;2.254;2023-12-14T02:48:06;0.00;0.00;0.00
75960;PMS7003;64644;48.914;2.254;2023-12-14T02:50:32;0.00;0.00;0.00
75960;PMS7003;64644;48.914;2.254;2023-12-14T02:52:57;0.00;0.00;0.00
75960;PMS7003;64644;48.914;2.254;2023-12-14T02:55:22;0.00;0.00;0.00
75960;PMS7003;64644;48.914;2.254;2023-12-14T02:57:48;0.50;0.00;0.00
75960;PMS7003;64644;48.914;2.254;2023-12-14T03:00:13;0.00;0.00;0.00
75960;PMS7003;64644;48.914;2.254;2023-12-14T03:02:39;0.50;0.00;0.00
75960;PMS7003;64644;48.914;2.254;2023-12-14T03:05:04;0.00;0.00;0.00
75960;PMS7003;64644;48.914;2.254;2023-12-14T03:07:30;0.00;0.00;0.00
75960;PMS7003;64644;48.914;2.254;2023-12-14T03:09:55;0.00;0.00;0.00
75960;PMS7003;64644;48.914;2.254;2023-12-14T03:12:20;0.00;0.00;0.00
75960;PMS7003;64644;48.914;2.254;2023-12-14T03:14:46;0.00;0.00;0.00
75960;PMS7003;64644;48.914;2.254;2023-12-14T03:17:11;0.00;0.00;0.00
75960;PMS7003;64644;48.914;2.254;2023-12-14T03:19:41;1.00;1.00;0.25
75960;PMS7003;64644;48.914;2.254;2023-12-14T03:22:06;0.50;0.00;0.00
75960;PMS7003;64644;48.914;2.254;2023-12-14T03:24:32;0.00;0.00;0.00
75960;PMS7003;64644;48.914;2.254;2023-12-14T03:26:58;1.00;0.00;0.00
75960;PMS7003;64644;48.914;2.254;2023-12-14T03:29:23;0.00;0.00;0.00
75960;PMS7003;64644;48.914;2.254;2023-12-14T03:31:48;0.00;0.00;0.00
75960;PMS7003;64644;48.914;2.254;2023-12-14T03:34:14;1.00;1.00;0.00
75960;PMS7003;64644;48.914;2.254;2023-12-14T03:36:39;2.00;0.00;0.00
75960;PMS7003;64644;48.914;2.254;2023-12-14T03:39:04;0.00;0.00;0.00
75960;PMS7003;64644;48.914;2.254;2023-12-14T03:41:31;0.00;0.00;0.00
75960;PMS7003;64644;48.914;2.254;2023-12-14T03:43:56;1.00;1.00;0.00
75960;PMS7003;64644;48.914;2.254;2023-12-14T03:46:22;0.00;0.00;0.00
75960;PMS7003;64644;48.914;2.254;2023-12-14T03:48:47;0.00;0.00;0.00
75960;PMS7003;64644;48.914;2.254;2023-12-14T03:51:13;0.50;0.50;0.00
75960;PMS7003;64644;48.914;2.254;2023-12-14T03:53:38;1.00;1.00;0.00
75960;PMS7003;64644;48.914;2.254;2023-12-14T03:56:04;1.00;1.00;0.00
75960;PMS7003;64644;48.914;2.254;2023-12-14T03:58:30;0.00;0.00;0.00
75960;PMS7003;64644;48.914;2.254;2023-12-14T04:13:04;1.75;1.75;1.00
75960;PMS7003;64644;48.914;2.254;2023-12-14T04:15:29;2.00;0.75;0.00
75960;PMS7003;64644;48.914;2.254;2023-12-14T04:17:54;2.00;1.00;0.75
75960;PMS7003;64644;48.914;2.254;2023-12-14T04:20:20;2.50;2.00;0.00
75960;PMS7003;64644;48.914;2.254;2023-12-14T04:22:45;0.00;0.00;0.00
75960;PMS7003;64644;48.914;2.254;2023-12-14T04:25:11;1.25;0.75;0.00
75960;PMS7003;64644;48.914;2.254;2023-12-14T04:27:36;1.00;1.00;1.00
75960;PMS7003;64644;48.914;2.254;2023-12-14T04:30:01;2.50;1.25;1.00
75960;PMS7003;64644;48.914;2.254;2023-12-14T04:32:29;1.75;1.75;0.00
75960;PMS7003;64644;48.914;2.254;2023-12-14T04:34:54;1.00;1.00;1.00
75960;PMS7003;64644;48.914;2.254;2023-12-14T04:37:20;2.75;2.75;1.00
75960;PMS7003;64644;48.914;2.254;2023-12-14T04:39:45;6.00;1.00;0.50
75960;PMS7003;64644;48.914;2.254;2023-12-14T04:42:11;1.75;1.75;1.00
75960;PMS7003;64644;48.914;2.254;2023-12-14T04:44:36;0.25;0.25;0.00
75960;PMS7003;64644;48.914;2.254;2023-12-14T04:47:01;1.25;1.25;1.00
75960;PMS7003;64644;48.914;2.254;2023-12-14T04:49:27;1.00;1.00;0.00
75960;PMS7003;64644;48.914;2.254;2023-12-14T04:51:52;1.25;1.00;1.00
75960;PMS7003;64644;48.914;2.254;2023-12-14T04:54:17;2.75;1.50;1.00
75960;PMS7003;64644;48.914;2.254;2023-12-14T04:56:45;2.00;1.25;0.75
75960;PMS7003;64644;48.914;2.254;2023-12-14T04:59:11;2.50;1.00;0.25
75960;PMS7003;64644;48.914;2.254;2023-12-14T05:01:36;2.00;2.00;1.00
75960;PMS7003;64644;48.914;2.254;2023-12-14T05:04:01;3.75;3.25;1.00
75960;PMS7003;64644;48.914;2.254;2023-12-14T05:06:27;2.00;2.00;1.00
75960;PMS7003;64644;48.914;2.254;2023-12-14T05:08:53;4.00;2.00;1.25
75960;PMS7003;64644;48.914;2.254;2023-12-14T05:11:18;3.25;2.00;1.75
75960;PMS7003;64644;48.914;2.254;2023-12-14T05:13:44;6.00;2.75;1.25
75960;PMS7003;64644;48.914;2.254;2023-12-14T05:16:13;1.00;1.00;1.00
75960;PMS7003;64644;48.914;2.254;2023-12-14T05:18:39;4.00;2.00;1.00
75960;PMS7003;64644;48.914;2.254;2023-12-14T05:21:04;3.75;3.75;1.00
75960;PMS7003;64644;48.914;2.254;2023-12-14T05:23:30;2.00;1.75;1.00
75960;PMS7003;64644;48.914;2.254;2023-12-14T05:25:55;4.00;1.00;1.00
75960;PMS7003;64644;48.914;2.254;2023-12-14T05:28:21;0.00;0.00;0.00
75960;PMS7003;64644;48.914;2.254;2023-12-14T05:30:46;3.75;2.00;1.00
75960;PMS7003;64644;48.914;2.254;2023-12-14T05:33:11;5.25;4.50;2.50
75960;PMS7003;64644;48.914;2.254;2023-12-14T05:35:37;4.00;4.00;2.00
75960;PMS7003;64644;48.914;2.254;2023-12-14T05:38:02;2.00;2.00;1.00
75960;PMS7003;64644;48.914;2.254;2023-12-14T05:40:27;2.00;2.00;1.00
75960;PMS7003;64644;48.914;2.254;2023-12-14T05:42:54;2.00;2.00;1.75
75960;PMS7003;64644;48.914;2.254;2023-12-14T05:45:19;2.00;2.00;0.25
75960;PMS7003;64644;48.914;2.254;2023-12-14T05:47:45;4.00;4.00;2.00
75960;PMS7003;64644;48.914;2.254;2023-12-14T05:50:10;2.75;2.75;2.00
75960;PMS7003;64644;48.914;2.254;2023-12-14T05:52:37;5.50;4.00;1.75
75960;PMS7003;64644;48.914;2.254;2023-12-14T05:55:03;5.00;4.00;1.00
75960;PMS7003;64644;48.914;2.254;2023-12-14T05:57:29;3.75;2.00;1.00
75960;PMS7003;64644;48.914;2.254;2023-12-14T05:59:54;4.25;3.00;2.00
75960;PMS7003;64644;48.914;2.254;2023-12-14T06:02:19;4.25;4.00;2.00
75960;PMS7003;64644;48.914;2.254;2023-12-14T06:04:45;7.00;4.00;2.00
75960;PMS7003;64644;48.914;2.254;2023-12-14T06:07:10;4.00;1.50;1.00
75960;PMS7003;64644;48.914;2.254;2023-12-14T06:09:36;5.00;4.75;1.75
75960;PMS7003;64644;48.914;2.254;2023-12-14T06:12:02;1.00;1.00;1.00
75960;PMS7003;64644;48.914;2.254;2023-12-14T06:14:28;2.50;2.00;1.00
75960;PMS7003;64644;48.914;2.254;2023-12-14T06:16:54;4.25;4.25;2.00
75960;PMS7003;64644;48.914;2.254;2023-12-14T06:19:19;2.25;2.25;2.00
75960;PMS7003;64644;48.914;2.254;2023-12-14T06:21:44;4.50;3.00;1.50
75960;PMS7003;64644;48.914;2.254;2023-12-14T06:24:10;5.00;3.50;1.00
75960;PMS7003;64644;48.914;2.254;2023-12-14T06:26:43;4.00;2.00;1.00
75960;PMS7003;64644;48.914;2.254;2023-12-14T06:29:09;4.25;2.00;2.00
75960;PMS7003;64644;48.914;2.254;2023-12-14T06:31:35;5.75;3.50;2.00
75960;PMS7003;64644;48.914;2.254;2023-12-14T06:34:01;5.00;4.00;1.00
75960;PMS7003;64644;48.914;2.254;2023-12-14T06:36:28;3.50;3.50;2.00
75960;PMS7003;64644;48.914;2.254;2023-12-14T06:38:55;3.00;2.00;1.00
75960;PMS7003;64644;48.914;2.254;2023-12-14T06:41:21;3.25;2.00;1.00
75960;PMS7003;64644;48.914;2.254;2023-12-14T06:43:47;4.50;1.75;1.00
75960;PMS7003;64644;48.914;2.254;2023-12-14T06:46:13;1.00;0.50;0.00
75960;PMS7003;64644;48.914;2.254;2023-12-14T06:48:38;3.25;2.00;2.00
75960;PMS7003;64644;48.914;2.254;2023-12-14T06:51:03;2.75;1.50;1.00
75960;PMS7003;64644;48.914;2.254;2023-12-14T06:53:29;2.00;2.00;1.00
75960;PMS7003;64644;48.914;2.254;2023-12-14T06:55:55;1.00;1.00;0.00
75960;PMS7003;64644;48.914;2.254;2023-12-14T06:58:20;0.00;0.00;0.00
75960;PMS7003;64644;48.914;2.254;2023-12-14T07:00:45;1.00;1.00;0.00
75960;PMS7003;64644;48.914;2.254;2023-12-14T07:03:11;0.75;0.75;0.25
75960;PMS7003;64644;48.914;2.254;2023-12-14T07:05:36;1.00;1.00;1.00
75960;PMS7003;64644;48.914;2.254;2023-12-14T07:08:01;2.00;1.00;0.00
75960;PMS7003;64644;48.914;2.254;2023-12-14T07:10:27;1.00;1.00;0.00
75960;PMS7003;64644;48.914;2.254;2023-12-14T07:12:52;1.50;1.50;1.00
75960;PMS7003;64644;48.914;2.254;2023-12-14T07:15:17;1.00;1.00;0.25
75960;PMS7003;64644;48.914;2.254;2023-12-14T07:17:43;1.00;1.00;1.00
75960;PMS7003;64644;48.914;2.254;2023-12-14T07:20:09;2.00;0.75;0.00
75960;PMS7003;64644;48.914;2.254;2023-12-14T07:22:35;4.25;1.00;0.00
75960;PMS7003;64644;48.914;2.254;2023-12-14T07:25:00;1.00;1.00;1.00
75960;PMS7003;64644;48.914;2.254;2023-12-14T07:27:25;1.75;1.75;0.50
75960;PMS7003;64644;48.914;2.254;2023-12-14T07:29:51;4.25;1.00;1.00
75960;PMS7003;64644;48.914;2.254;2023-12-14T07:32:16;2.00;2.00;1.00
75960;PMS7003;64644;48.914;2.254;2023-12-14T07:34:41;3.50;1.50;1.00
75960;PMS7003;64644;48.914;2.254;2023-12-14T07:37:07;3.50;2.00;1.00
75960;PMS7003;64644;48.914;2.254;2023-12-14T07:39:32;0.50;0.50;0.00
75960;PMS7003;64644;48.914;2.254;2023-12-14T07:41:58;1.25;1.25;0.25
75960;PMS7003;64644;48.914;2.254;2023-12-14T07:44:23;1.00;1.00;0.50
75960;PMS7003;64644;48.914;2.254;2023-12-14T07:46:50;1.25;1.25;0.50
75960;PMS7003;64644;48.914;2.254;2023-12-14T07:49:16;2.00;2.00;1.00
75960;PMS7003;64644;48.914;2.254;2023-12-14T07:51:45;0.25;0.25;0.00
75960;PMS7003;64644;48.914;2.254;2023-12-14T07:54:11;0.00;0.00;0.00
75960;PMS7003;64644;48.914;2.254;2023-12-14T07:56:36;1.25;1.25;1.00
75960;PMS7003;64644;48.914;2.254;2023-12-14T07:59:01;2.00;1.00;0.00
75960;PMS7003;64644;48.914;2.254;2023-12-14T08:01:31;1.00;0.50;0.00
75960;PMS7003;64644;48.914;2.254;2023-12-14T08:03:56;2.00;2.00;1.00
75960;PMS7003;64644;48.914;2.254;2023-12-14T08:06:23;4.00;2.00;1.00
75960;PMS7003;64644;48.914;2.254;2023-12-14T08:08:48;2.00;2.00;1.00
75960;PMS7003;64644;48.914;2.254;2023-12-14T08:11:14;2.00;2.00;1.25
75960;PMS7003;64644;48.914;2.254;2023-12-14T08:13:39;2.00;2.00;2.00
75960;PMS7003;64644;48.914;2.254;2023-12-14T08:16:05;4.00;4.00;2.00
75960;PMS7003;64644;48.914;2.254;2023-12-14T08:18:31;3.50;3.50;1.75
75960;PMS7003;64644;48.914;2.254;2023-12-14T08:20:57;4.00;4.00;3.00
75960;PMS7003;64644;48.914;2.254;2023-12-14T08:23:22;8.00;5.00;4.00
75960;PMS7003;64644;48.914;2.254;2023-12-14T08:25:48;2.25;1.75;1.00
75960;PMS7003;64644;48.914;2.254;2023-12-14T08:28:13;4.75;4.00;2.00
75960;PMS7003;64644;48.914;2.254;2023-12-14T08:30:39;1.00;1.00;1.00
75960;PMS7003;64644;48.914;2.254;2023-12-14T08:33:04;4.00;4.00;2.00
75960;PMS7003;64644;48.914;2.254;2023-12-14T08:35:29;7.00;4.00;2.00
75960;PMS7003;64644;48.914;2.254;2023-12-14T08:37:55;5.00;2.00;2.00
75960;PMS7003;64644;48.914;2.254;2023-12-14T08:40:20;6.00;6.00;3.00
75960;PMS7003;64644;48.914;2.254;2023-12-14T08:42:46;8.00;7.00;4.50
75960;PMS7003;64644;48.914;2.254;2023-12-14T08:45:12;7.25;6.00;4.50
75960;PMS7003;64644;48.914;2.254;2023-12-14T08:47:37;9.25;7.00;4.25
75960;PMS7003;64644;48.914;2.254;2023-12-14T08:50:04;12.75;5.25;4.75
75960;PMS7003;64644;48.914;2.254;2023-12-14T08:52:30;6.00;5.00;3.50
75960;PMS7003;64644;48.914;2.254;2023-12-14T08:54:55;4.67;4.67;3.33
75960;PMS7003;64644;48.914;2.254;2023-12-14T08:57:20;7.00;7.00;4.25
75960;PMS7003;64644;48.914;2.254;2023-12-14T08:59:46;5.25;5.25;4.75
75960;PMS7003;64644;48.914;2.254;2023-12-14T09:02:11;4.00;4.00;2.00
75960;PMS7003;64644;48.914;2.254;2023-12-14T09:04:37;5.50;5.50;3.75
75960;PMS7003;64644;48.914;2.254;2023-12-14T09:07:03;5.75;4.25;4.00
75960;PMS7003;64644;48.914;2.254;2023-12-14T09:09:29;8.75;5.00;2.00
75960;PMS7003;64644;48.914;2.254;2023-12-14T09:11:54;5.25;4.00;2.00
75960;PMS7003;64644;48.914;2.254;2023-12-14T09:14:19;7.33;7.33;4.00
75960;PMS7003;64644;48.914;2.254;2023-12-14T09:16:45;4.50;3.50;1.75
75960;PMS7003;64644;48.914;2.254;2023-12-14T09:19:10;5.50;5.00;4.00
75960;PMS7003;64644;48.914;2.254;2023-12-14T09:21:36;6.00;5.75;4.75
75960;PMS7003;64644;48.914;2.254;2023-12-14T09:24:02;8.50;5.50;4.00
75960;PMS7003;64644;48.914;2.254;2023-12-14T09:26:27;8.00;5.75;3.50
75960;PMS7003;64644;48.914;2.254;2023-12-14T09:28:53;6.50;5.25;4.75
75960;PMS7003;64644;48.914;2.254;2023-12-14T09:31:18;4.75;4.75;4.00
75960;PMS7003;64644;48.914;2.254;2023-12-14T09:33:44;7.00;5.25;4.25
75960;PMS7003;64644;48.914;2.254;2023-12-14T09:36:09;7.33;5.33;4.00
75960;PMS7003;64644;48.914;2.254;2023-12-14T09:38:34;5.00;5.00;4.25
75960;PMS7003;64644;48.914;2.254;2023-12-14T09:41:01;6.25;5.25;4.00
75960;PMS7003;64644;48.914;2.254;2023-12-14T09:43:26;8.00;5.00;2.00
75960;PMS7003;64644;48.914;2.254;2023-12-14T09:45:51;6.00;6.00;4.00
75960;PMS7003;64644;48.914;2.254;2023-12-14T09:48:17;6.00;6.00;4.75
75960;PMS7003;64644;48.914;2.254;2023-12-14T09:50:43;7.75;6.00;4.75
75960;PMS7003;64644;48.914;2.254;2023-12-14T09:53:08;5.50;5.50;4.00
75960;PMS7003;64644;48.914;2.254;2023-12-14T09:55:34;6.25;4.50;2.00
75960;PMS7003;64644;48.914;2.254;2023-12-14T09:57:59;8.50;5.25;4.25
75960;PMS7003;64644;48.914;2.254;2023-12-14T10:00:37;6.75;5.25;4.00
75960;PMS7003;64644;48.914;2.254;2023-12-14T10:05:59;9.25;8.75;4.50
75960;PMS7003;64644;48.914;2.254;2023-12-14T10:08:26;5.75;5.75;4.00
75960;PMS7003;64644;48.914;2.254;2023-12-14T10:10:53;4.25;4.25;2.50
75960;PMS7003;64644;48.914;2.254;2023-12-14T10:13:21;4.75;4.75;2.50
75960;PMS7003;64644;48.914;2.254;2023-12-14T10:16:00;5.00;5.00;4.00
75960;PMS7003;64644;48.914;2.254;2023-12-14T10:18:25;4.00;4.00;2.00
75960;PMS7003;64644;48.914;2.254;2023-12-14T10:20:51;4.00;3.50;2.00
75960;PMS7003;64644;48.914;2.254;2023-12-14T10:23:16;5.00;5.00;4.00
75960;PMS7003;64644;48.914;2.254;2023-12-14T10:25:42;4.75;4.75;3.50
75960;PMS7003;64644;48.914;2.254;2023-12-14T10:28:11;5.50;4.75;4.00
75960;PMS7003;64644;48.914;2.254;2023-12-14T10:30:38;5.25;5.25;2.00
75960;PMS7003;64644;48.914;2.254;2023-12-14T10:33:04;4.25;4.25;2.00
75960;PMS7003;64644;48.914;2.254;2023-12-14T10:35:29;2.00;2.00;1.75
75960;PMS7003;64644;48.914;2.254;2023-12-14T10:37:54;4.00;4.00;2.00
75960;PMS7003;64644;48.914;2.254;2023-12-14T10:40:22;5.25;4.25;2.00
75960;PMS7003;64644;48.914;2.254;2023-12-14T10:42:48;6.75;6.00;4.25
75960;PMS7003;64644;48.914;2.254;2023-12-14T10:45:15;3.50;3.50;2.50
75960;PMS7003;64644;48.914;2.254;2023-12-14T10:47:44;5.00;4.00;3.25
75960;PMS7003;64644;48.914;2.254;2023-12-14T10:50:10;5.00;4.00;2.00
75960;PMS7003;64644;48.914;2.254;2023-12-14T10:52:39;4.25;4.00;2.00
75960;PMS7003;64644;48.914;2.254;2023-12-14T10:55:06;5.50;5.00;3.25
75960;PMS7003;64644;48.914;2.254;2023-12-14T10:57:36;3.50;2.00;2.00
75960;PMS7003;64644;48.914;2.254;2023-12-14T11:00:03;9.75;6.00;5.00
75960;PMS7003;64644;48.914;2.254;2023-12-14T11:02:41;5.50;2.75;1.50
75960;PMS7003;64644;48.914;2.254;2023-12-14T11:05:11;5.00;4.00;2.00
75960;PMS7003;64644;48.914;2.254;2023-12-14T11:10:09;5.00;3.75;2.00
75960;PMS7003;64644;48.914;2.254;2023-12-14T11:12:36;2.75;2.75;2.25
75960;PMS7003;64644;48.914;2.254;2023-12-14T11:15:02;4.50;4.50;2.00
75960;PMS7003;64644;48.914;2.254;2023-12-14T11:17:28;3.25;3.25;1.75
75960;PMS7003;64644;48.914;2.254;2023-12-14T11:19:54;4.00;2.00;2.00
75960;PMS7003;64644;48.914;2.254;2023-12-14T11:22:24;6.25;4.00;2.00
75960;PMS7003;64644;48.914;2.254;2023-12-14T11:24:54;3.25;3.25;3.25
75960;PMS7003;64644;48.914;2.254;2023-12-14T11:27:22;1.50;1.50;1.00
75960;PMS7003;64644;48.914;2.254;2023-12-14T11:29:52;3.75;3.75;2.00
75960;PMS7003;64644;48.914;2.254;2023-12-14T11:32:18;1.75;1.75;1.50
75960;PMS7003;64644;48.914;2.254;2023-12-14T11:34:45;2.25;2.25;1.00
75960;PMS7003;64644;48.914;2.254;2023-12-14T11:37:11;5.00;4.00;2.00
75960;PMS7003;64644;48.914;2.254;2023-12-14T11:39:37;3.75;2.00;2.00
75960;PMS7003;64644;48.914;2.254;2023-12-14T11:42:03;4.50;4.25;2.00
75960;PMS7003;64644;48.914;2.254;2023-12-14T11:44:31;2.00;1.00;0.25
75960;PMS7003;64644;48.914;2.254;2023-12-14T11:46:57;2.00;2.00;2.00
75960;PMS7003;64644;48.914;2.254;2023-12-14T11:49:25;3.25;3.25;2.00
75960;PMS7003;64644;48.914;2.254;2023-12-14T11:51:54;1.75;1.75;1.00
75960;PMS7003;64644;48.914;2.254;2023-12-14T11:54:20;2.00;2.00;1.00
75960;PMS7003;64644;48.914;2.254;2023-12-14T11:56:49;2.00;2.00;1.75
75960;PMS7003;64644;48.914;2.254;2023-12-14T11:59:18;2.00;2.00;1.00
75960;PMS7003;64644;48.914;2.254;2023-12-14T12:02:00;3.25;2.50;1.00
75960;PMS7003;64644;48.914;2.254;2023-12-14T12:04:27;2.75;2.75;2.25
75960;PMS7003;64644;48.914;2.254;2023-12-14T12:07:02;1.00;1.00;0.50
75960;PMS7003;64644;48.914;2.254;2023-12-14T12:09:40;4.50;3.25;3.00
75960;PMS7003;64644;48.914;2.254;2023-12-14T12:12:10;3.25;3.25;1.25
75960;PMS7003;64644;48.914;2.254;2023-12-14T12:14:38;6.00;6.00;3.25
75960;PMS7003;64644;48.914;2.254;2023-12-14T12:17:04;13.75;7.75;3.50
75960;PMS7003;64644;48.914;2.254;2023-12-14T12:19:35;5.50;5.25;3.00
75960;PMS7003;64644;48.914;2.254;2023-12-14T12:22:02;4.75;4.75;4.00
75960;PMS7003;64644;48.914;2.254;2023-12-14T12:24:28;2.00;2.00;1.50
75960;PMS7003;64644;48.914;2.254;2023-12-14T12:26:53;3.25;1.25;1.00
75960;PMS7003;64644;48.914;2.254;2023-12-14T12:29:19;4.25;1.50;1.00
75960;PMS7003;64644;48.914;2.254;2023-12-14T12:31:45;4.50;3.25;2.00
75960;PMS7003;64644;48.914;2.254;2023-12-14T12:34:10;5.67;3.33;1.33
75960;PMS7003;64644;48.914;2.254;2023-12-14T12:36:36;4.75;3.75;2.25
75960;PMS7003;64644;48.914;2.254;2023-12-14T12:39:02;14.00;9.00;5.50
75960;PMS7003;64644;48.914;2.254;2023-12-14T12:41:28;4.00;3.25;2.50
75960;PMS7003;64644;48.914;2.254;2023-12-14T12:43:53;6.25;4.50;2.50
75960;PMS7003;64644;48.914;2.254;2023-12-14T12:46:19;5.25;3.50;2.50
75960;PMS7003;64644;48.914;2.254;2023-12-14T12:48:44;2.00;2.00;1.50
75960;PMS7003;64644;48.914;2.254;2023-12-14T12:51:11;3.25;3.25;2.00
75960;PMS7003;64644;48.914;2.254;2023-12-14T12:53:37;6.00;6.00;3.25
75960;PMS7003;64644;48.914;2.254;2023-12-14T12:56:02;1.75;1.25;1.00
75960;PMS7003;64644;48.914;2.254;2023-12-14T12:58:28;3.25;1.00;0.75
75960;PMS7003;64644;48.914;2.254;2023-12-14T13:00:53;4.00;1.00;0.75
75960;PMS7003;64644;48.914;2.254;2023-12-14T13:03:19;2.00;2.00;1.25
75960;PMS7003;64644;48.914;2.254;2023-12-14T13:05:44;2.25;2.25;1.00
75960;PMS7003;64644;48.914;2.254;2023-12-14T13:08:09;1.75;1.75;1.00
75960;PMS7003;64644;48.914;2.254;2023-12-14T13:10:35;2.50;2.50;1.00
75960;PMS7003;64644;48.914;2.254;2023-12-14T13:13:02;1.50;1.50;1.00
75960;PMS7003;64644;48.914;2.254;2023-12-14T13:15:27;6.00;4.75;3.75
75960;PMS7003;64644;48.914;2.254;2023-12-14T13:17:54;4.00;4.00;3.50
75960;PMS7003;64644;48.914;2.254;2023-12-14T13:20:19;4.00;1.00;0.00
75960;PMS7003;64644;48.914;2.254;2023-12-14T13:22:44;2.00;2.00;1.50
75960;PMS7003;64644;48.914;2.254;2023-12-14T13:25:10;2.75;2.75;1.50
75960;PMS7003;64644;48.914;2.254;2023-12-14T13:27:35;3.33;2.00;1.00
75960;PMS7003;64644;48.914;2.254;2023-12-14T13:30:01;2.50;2.00;1.00
75960;PMS7003;64644;48.914;2.254;2023-12-14T13:32:27;1.25;1.25;1.00
75960;PMS7003;64644;48.914;2.254;2023-12-14T13:34:52;2.50;2.50;2.00
75960;PMS7003;64644;48.914;2.254;2023-12-14T13:37:18;1.25;1.25;1.00
75960;PMS7003;64644;48.914;2.254;2023-12-14T13:39:43;2.00;1.50;1.00
75960;PMS7003;64644;48.914;2.254;2023-12-14T13:42:08;3.25;1.50;1.00
75960;PMS7003;64644;48.914;2.254;2023-12-14T13:44:34;1.00;1.00;1.00
75960;PMS7003;64644;48.914;2.254;2023-12-14T13:47:02;2.25;2.00;1.00
75960;PMS7003;64644;48.914;2.254;2023-12-14T13:49:29;2.75;1.00;1.00
75960;PMS7003;64644;48.914;2.254;2023-12-14T13:51:54;1.75;1.00;1.00
75960;PMS7003;64644;48.914;2.254;2023-12-14T13:54:19;6.50;4.50;2.00
75960;PMS7003;64644;48.914;2.254;2023-12-14T13:56:45;5.00;2.75;2.00
75960;PMS7003;64644;48.914;2.254;2023-12-14T13:59:10;2.75;2.75;1.50
75960;PMS7003;64644;48.914;2.254;2023-12-14T14:01:35;2.50;1.00;1.00
75960;PMS7003;64644;48.914;2.254;2023-12-14T14:04:01;3.75;3.75;1.00
75960;PMS7003;64644;48.914;2.254;2023-12-14T14:06:27;5.00;3.25;1.00
75960;PMS7003;64644;48.914;2.254;2023-12-14T14:08:52;2.25;2.00;1.00
75960;PMS7003;64644;48.914;2.254;2023-12-14T14:11:19;2.00;1.00;0.50
75960;PMS7003;64644;48.914;2.254;2023-12-14T14:13:45;1.00;1.00;0.00
75960;PMS7003;64644;48.914;2.254;2023-12-14T14:16:10;2.00;2.00;1.75
75960;PMS7003;64644;48.914;2.254;2023-12-14T14:18:36;2.00;2.00;1.00
75960;PMS7003;64644;48.914;2.254;2023-12-14T14:21:01;2.00;2.00;1.25
75960;PMS7003;64644;48.914;2.254;2023-12-14T14:23:26;3.25;1.75;1.00
75960;PMS7003;64644;48.914;2.254;2023-12-14T14:25:52;2.25;1.50;1.00
75960;PMS7003;64644;48.914;2.254;2023-12-14T14:28:20;2.00;2.00;2.00
75960;PMS7003;64644;48.914;2.254;2023-12-14T14:30:47;3.25;2.00;1.00
75960;PMS7003;64644;48.914;2.254;2023-12-14T14:33:13;1.25;1.25;1.00